Crazy Crazy — FGD2432 — position and weather

sailwx.info

Track history (hours):
 
Tides and Currents Weather Stations Pressure Air Temp Water Temp Dewpoint Dewpoint Depression Visibility Wind Speed Wind Dir Waves Ship Positions

Crazy Crazy

Last reported at 2017-Sep-03 16:16 UTC. Time now 2017-Sep-21 05:27 UTC.
Position N 47°44' W 003°22'.
Warning: this ship's position is 17 days out of date.

Length 10 m.

Type: Sailing vessel. MMSI: 227550490.

Date/timePositionNaut miles runAvg speedWind from/ knotsBaromVisibWave heightAir tempDewpointWater temp
2017-Sep-03 16:16N 47°44' W 003°22'0 0.1
2017-Sep-03 16:00N 47°44' W 003°22'3 5.5
2017-Sep-03 15:30N 47°41' W 003°22'4 7.9
2017-Sep-03 15:00N 47°38' W 003°19'9 8.9
2017-Sep-03 14:00N 47°30' W 003°12'22 0.9
2017-Sep-02 13:39N 47°24' W 002°41'1 7.0
2017-Sep-02 13:27N 47°25' W 002°43'3 6.5
2017-Sep-02 12:59N 47°26' W 002°47'3 5.2
2017-Sep-02 12:30N 47°27' W 002°51'3 5.2
2017-Sep-02 12:00N 47°28' W 002°54'1 1.2
2017-Sep-02 11:30N 47°28' W 002°54'2 3.4
2017-Sep-02 10:59N 47°29' W 002°52'0 0.1
2017-Sep-02 10:30N 47°29' W 002°52'0 0.3
2017-Sep-02 10:00N 47°29' W 002°52'2 3.8
2017-Sep-02 09:29N 47°29' W 002°55'3 5.4
2017-Sep-02 09:00N 47°30' W 002°59'3 5.5
2017-Sep-02 08:30N 47°30' W 003°03'1 2.5
2017-Sep-02 08:00N 47°29' W 003°05'0 0.7
2017-Sep-02 07:30N 47°30' W 003°05'1 1.7
2017-Sep-02 07:00N 47°29' W 003°06'0 0.0
2017-Sep-01 13:35N 47°29' W 003°06'0 0.0
2017-Sep-01 13:25N 47°29' W 003°06'2 3.4
2017-Sep-01 12:57N 47°28' W 003°04'4 4.8
2017-Sep-01 12:02N 47°24' W 003°01'2 7.1
2017-Sep-01 11:42N 47°25' W 003°04'2 7.6
2017-Sep-01 11:30N 47°26' W 003°06'4 7.1
2017-Sep-01 11:00N 47°29' W 003°09'4 7.6
2017-Sep-01 10:30N 47°33' W 003°12'3 6.9
2017-Sep-01 10:00N 47°36' W 003°13'3 6.9
2017-Sep-01 09:30N 47°38' W 003°17'3 6.7
2017-Sep-01 09:00N 47°40' W 003°21'1 1.1
2017-Sep-01 08:30N 47°39' W 003°21'0 0.4
2017-Sep-01 08:00N 47°39' W 003°21'1 2.3
2017-Sep-01 07:30N 47°40' W 003°22'3 5.9
2017-Sep-01 07:00N 47°43' W 003°22'0 0.0
2017-Aug-31 13:48N 47°43' W 003°22'0 0.6
2017-Aug-31 13:30N 47°43' W 003°22'3 6.4
2017-Aug-31 13:00N 47°41' W 003°25'4 8.2
2017-Aug-31 12:31N 47°37' W 003°24'3 5.4
2017-Aug-31 12:00N 47°37' W 003°28'3 6.2
2017-Aug-31 11:28N 47°40' W 003°30'2 5.1
2017-Aug-31 11:00N 47°39' W 003°27'2 4.8
2017-Aug-31 10:30N 47°39' W 003°23'2 3.3
2017-Aug-31 10:00N 47°40' W 003°21'0 0.8
2017-Aug-31 09:30N 47°40' W 003°22'3 5.3
2017-Aug-31 09:00N 47°42' W 003°22'1 0.0
2017-Aug-30 17:33N 47°43' W 003°22'0 0.0
2017-Aug-30 17:30N 47°43' W 003°22'1 1.5
2017-Aug-30 17:00N 47°42' W 003°22'4 7.0
2017-Aug-30 16:30N 47°41' W 003°27'54 8.1
2017-Aug-30 09:54N 47°60' W 004°42'510.7
2017-Aug-30 09:27N 48°04' W 004°45'511.7
2017-Aug-30 09:00N 48°09' W 004°43'5 9.8
2017-Aug-30 08:30N 48°14' W 004°40'4 7.7
2017-Aug-30 08:00N 48°17' W 004°38'2 3.4
2017-Aug-30 07:30N 48°17' W 004°36'0 0.7
2017-Aug-30 07:00N 48°17' W 004°35'1 0.0
2017-Aug-29 04:01N 48°17' W 004°36'0 0.0
2017-Aug-29 03:59N 48°17' W 004°36'1 1.9
2017-Aug-29 03:30N 48°17' W 004°35'1 2.8
2017-Aug-29 03:00N 48°17' W 004°37'2 4.8
2017-Aug-29 02:30N 48°15' W 004°39'3 6.4
2017-Aug-29 02:01N 48°12' W 004°38'3 6.7
2017-Aug-29 01:30N 48°09' W 004°36'2 4.3
2017-Aug-29 01:00N 48°10' W 004°38'5 8.9
2017-Aug-29 00:30N 48°14' W 004°42'4 7.4
2017-Aug-29 00:00N 48°17' W 004°45'9 8.2
2017-Aug-28 22:58N 48°25' W 004°50'4 8.3
2017-Aug-28 22:30N 48°29' W 004°50'4 8.0
2017-Aug-28 21:58N 48°33' W 004°48'71 2.2
2017-Aug-27 14:08N 48°50' W 003°03'1 5.6
2017-Aug-27 13:53N 48°51' W 003°02'5 4.3
2017-Aug-27 12:43N 48°55' W 002°56'5 4.7
2017-Aug-27 11:34N 48°49' W 002°55'1 5.8
2017-Aug-27 11:25N 48°48' W 002°55'2 3.9
2017-Aug-27 10:54N 48°47' W 002°54'3 4.7
2017-Aug-27 10:18N 48°49' W 002°56'4 0.2
2017-Aug-26 14:41N 48°50' W 003°02'5 7.3
2017-Aug-26 13:58N 48°50' W 002°54'4 8.9
2017-Aug-26 13:30N 48°49' W 002°47'5 9.2
2017-Aug-26 12:57N 48°47' W 002°40'5 9.0
2017-Aug-26 12:27N 48°46' W 002°33'10 7.6
2017-Aug-26 11:10N 48°45' W 002°19'1 6.5
2017-Aug-26 10:57N 48°44' W 002°17'3 6.3
2017-Aug-26 10:24N 48°44' W 002°11'2 5.6
2017-Aug-26 10:00N 48°42' W 002°09'2 2.9
2017-Aug-26 09:22N 48°41' W 002°07'0 0.4
2017-Aug-26 08:58N 48°41' W 002°08'1 2.1
2017-Aug-26 08:28N 48°42' W 002°07'2 4.8
2017-Aug-26 08:00N 48°40' W 002°04'2 3.4
2017-Aug-26 07:21N 48°39' W 002°02'0 0.6
2017-Aug-26 06:58N 48°39' W 002°01'0 0.0
2017-Aug-25 15:27N 48°39' W 002°01'0 0.0
2017-Aug-25 15:00N 48°39' W 002°01'0 0.0
2017-Aug-25 14:30N 48°39' W 002°01'0 0.0
2017-Aug-25 13:24N 48°39' W 002°01'0 0.0
2017-Aug-25 12:48N 48°39' W 002°01'0 0.0
2017-Aug-25 12:24N 48°39' W 002°01'0 0.0
2017-Aug-25 11:57N 48°39' W 002°01'0 0.0
2017-Aug-25 11:24N 48°39' W 002°01'1 0.3
2017-Aug-25 09:03N 48°38' W 002°02'0 0.9
2017-Aug-25 08:53N 48°38' W 002°02'3 4.7
2017-Aug-25 08:12N 48°41' W 002°04'2 4.5
2017-Aug-25 07:48N 48°40' W 002°02'2 3.7
2017-Aug-25 07:21N 48°38' W 002°02'0 1.2
2017-Aug-25 07:00N 48°39' W 002°02'0 0.2
2017-Aug-25 04:38N 48°39' W 002°01'0 0.0
2017-Aug-25 04:14N 48°39' W 002°01'0 0.0
2017-Aug-25 03:56N 48°39' W 002°01'0 0.0
2017-Aug-25 02:38N 48°39' W 002°01'0 0.0
2017-Aug-25 02:26N 48°39' W 002°01'0 0.0
2017-Aug-25 01:59N 48°39' W 002°01'0 0.0
2017-Aug-25 01:29N 48°39' W 002°01'0 0.0
2017-Aug-25 00:44N 48°39' W 002°01'0 0.0
2017-Aug-24 19:05N 48°39' W 002°01'0 0.0
2017-Aug-24 18:38N 48°39' W 002°01'0 0.0
2017-Aug-24 18:02N 48°39' W 002°01'  
Track history (hours):
 
Tides and Currents Weather Stations Pressure Air Temp Water Temp Dewpoint Dewpoint Depression Visibility Wind Speed Wind Dir Waves Ship Positions

Crazy Crazy

Last reported at 2017-Sep-03 16:16 UTC. Time now 2017-Sep-21 05:27 UTC.
Position N 47°44' W 003°22'.
Warning: this ship's position is 17 days out of date.

Length 10 m.

Type: Sailing vessel. MMSI: 227550490.

Date/timePositionNaut miles runAvg speedWind from/ knotsBaromVisibWave heightAir tempDewpointWater temp
2017-Sep-03 16:16N 47°44' W 003°22'0 0.1
2017-Sep-03 16:00N 47°44' W 003°22'3 5.5
2017-Sep-03 15:30N 47°41' W 003°22'4 7.9
2017-Sep-03 15:00N 47°38' W 003°19'9 8.9
2017-Sep-03 14:00N 47°30' W 003°12'22 0.9
2017-Sep-02 13:39N 47°24' W 002°41'1 7.0
2017-Sep-02 13:27N 47°25' W 002°43'3 6.5
2017-Sep-02 12:59N 47°26' W 002°47'3 5.2
2017-Sep-02 12:30N 47°27' W 002°51'3 5.2
2017-Sep-02 12:00N 47°28' W 002°54'1 1.2
2017-Sep-02 11:30N 47°28' W 002°54'2 3.4
2017-Sep-02 10:59N 47°29' W 002°52'0 0.1
2017-Sep-02 10:30N 47°29' W 002°52'0 0.3
2017-Sep-02 10:00N 47°29' W 002°52'2 3.8
2017-Sep-02 09:29N 47°29' W 002°55'3 5.4
2017-Sep-02 09:00N 47°30' W 002°59'3 5.5
2017-Sep-02 08:30N 47°30' W 003°03'1 2.5
2017-Sep-02 08:00N 47°29' W 003°05'0 0.7
2017-Sep-02 07:30N 47°30' W 003°05'1 1.7
2017-Sep-02 07:00N 47°29' W 003°06'0 0.0
2017-Sep-01 13:35N 47°29' W 003°06'0 0.0
2017-Sep-01 13:25N 47°29' W 003°06'2 3.4
2017-Sep-01 12:57N 47°28' W 003°04'4 4.8
2017-Sep-01 12:02N 47°24' W 003°01'2 7.1
2017-Sep-01 11:42N 47°25' W 003°04'2 7.6
2017-Sep-01 11:30N 47°26' W 003°06'4 7.1
2017-Sep-01 11:00N 47°29' W 003°09'4 7.6
2017-Sep-01 10:30N 47°33' W 003°12'3 6.9
2017-Sep-01 10:00N 47°36' W 003°13'3 6.9
2017-Sep-01 09:30N 47°38' W 003°17'3 6.7
2017-Sep-01 09:00N 47°40' W 003°21'1 1.1
2017-Sep-01 08:30N 47°39' W 003°21'0 0.4
2017-Sep-01 08:00N 47°39' W 003°21'1 2.3
2017-Sep-01 07:30N 47°40' W 003°22'3 5.9
2017-Sep-01 07:00N 47°43' W 003°22'0 0.0
2017-Aug-31 13:48N 47°43' W 003°22'0 0.6
2017-Aug-31 13:30N 47°43' W 003°22'3 6.4
2017-Aug-31 13:00N 47°41' W 003°25'4 8.2
2017-Aug-31 12:31N 47°37' W 003°24'3 5.4
2017-Aug-31 12:00N 47°37' W 003°28'3 6.2
2017-Aug-31 11:28N 47°40' W 003°30'2 5.1
2017-Aug-31 11:00N 47°39' W 003°27'2 4.8
2017-Aug-31 10:30N 47°39' W 003°23'2 3.3
2017-Aug-31 10:00N 47°40' W 003°21'0 0.8
2017-Aug-31 09:30N 47°40' W 003°22'3 5.3
2017-Aug-31 09:00N 47°42' W 003°22'1 0.0
2017-Aug-30 17:33N 47°43' W 003°22'0 0.0
2017-Aug-30 17:30N 47°43' W 003°22'1 1.5
2017-Aug-30 17:00N 47°42' W 003°22'4 7.0
2017-Aug-30 16:30N 47°41' W 003°27'54 8.1
2017-Aug-30 09:54N 47°60' W 004°42'510.7
2017-Aug-30 09:27N 48°04' W 004°45'511.7
2017-Aug-30 09:00N 48°09' W 004°43'5 9.8
2017-Aug-30 08:30N 48°14' W 004°40'4 7.7
2017-Aug-30 08:00N 48°17' W 004°38'2 3.4
2017-Aug-30 07:30N 48°17' W 004°36'0 0.7
2017-Aug-30 07:00N 48°17' W 004°35'1 0.0
2017-Aug-29 04:01N 48°17' W 004°36'0 0.0
2017-Aug-29 03:59N 48°17' W 004°36'1 1.9
2017-Aug-29 03:30N 48°17' W 004°35'1 2.8
2017-Aug-29 03:00N 48°17' W 004°37'2 4.8
2017-Aug-29 02:30N 48°15' W 004°39'3 6.4
2017-Aug-29 02:01N 48°12' W 004°38'3 6.7
2017-Aug-29 01:30N 48°09' W 004°36'2 4.3
2017-Aug-29 01:00N 48°10' W 004°38'5 8.9
2017-Aug-29 00:30N 48°14' W 004°42'4 7.4
2017-Aug-29 00:00N 48°17' W 004°45'9 8.2
2017-Aug-28 22:58N 48°25' W 004°50'4 8.3
2017-Aug-28 22:30N 48°29' W 004°50'4 8.0
2017-Aug-28 21:58N 48°33' W 004°48'71 2.2
2017-Aug-27 14:08N 48°50' W 003°03'1 5.6
2017-Aug-27 13:53N 48°51' W 003°02'5 4.3
2017-Aug-27 12:43N 48°55' W 002°56'5 4.7
2017-Aug-27 11:34N 48°49' W 002°55'1 5.8
2017-Aug-27 11:25N 48°48' W 002°55'2 3.9
2017-Aug-27 10:54N 48°47' W 002°54'3 4.7
2017-Aug-27 10:18N 48°49' W 002°56'4 0.2
2017-Aug-26 14:41N 48°50' W 003°02'5 7.3
2017-Aug-26 13:58N 48°50' W 002°54'4 8.9
2017-Aug-26 13:30N 48°49' W 002°47'5 9.2
2017-Aug-26 12:57N 48°47' W 002°40'5 9.0
2017-Aug-26 12:27N 48°46' W 002°33'10 7.6
2017-Aug-26 11:10N 48°45' W 002°19'1 6.5
2017-Aug-26 10:57N 48°44' W 002°17'3 6.3
2017-Aug-26 10:24N 48°44' W 002°11'2 5.6
2017-Aug-26 10:00N 48°42' W 002°09'2 2.9
2017-Aug-26 09:22N 48°41' W 002°07'0 0.4
2017-Aug-26 08:58N 48°41' W 002°08'1 2.1
2017-Aug-26 08:28N 48°42' W 002°07'2 4.8
2017-Aug-26 08:00N 48°40' W 002°04'2 3.4
2017-Aug-26 07:21N 48°39' W 002°02'0 0.6
2017-Aug-26 06:58N 48°39' W 002°01'0 0.0
2017-Aug-25 15:27N 48°39' W 002°01'0 0.0
2017-Aug-25 15:00N 48°39' W 002°01'0 0.0
2017-Aug-25 14:30N 48°39' W 002°01'0 0.0
2017-Aug-25 13:24N 48°39' W 002°01'0 0.0
2017-Aug-25 12:48N 48°39' W 002°01'0 0.0
2017-Aug-25 12:24N 48°39' W 002°01'0 0.0
2017-Aug-25 11:57N 48°39' W 002°01'0 0.0
2017-Aug-25 11:24N 48°39' W 002°01'1 0.3
2017-Aug-25 09:03N 48°38' W 002°02'0 0.9
2017-Aug-25 08:53N 48°38' W 002°02'3 4.7
2017-Aug-25 08:12N 48°41' W 002°04'2 4.5
2017-Aug-25 07:48N 48°40' W 002°02'2 3.7
2017-Aug-25 07:21N 48°38' W 002°02'0 1.2
2017-Aug-25 07:00N 48°39' W 002°02'0 0.2
2017-Aug-25 04:38N 48°39' W 002°01'0 0.0
2017-Aug-25 04:14N 48°39' W 002°01'0 0.0
2017-Aug-25 03:56N 48°39' W 002°01'0 0.0
2017-Aug-25 02:38N 48°39' W 002°01'0 0.0
2017-Aug-25 02:26N 48°39' W 002°01'0 0.0
2017-Aug-25 01:59N 48°39' W 002°01'0 0.0
2017-Aug-25 01:29N 48°39' W 002°01'0 0.0
2017-Aug-25 00:44N 48°39' W 002°01'0 0.0
2017-Aug-24 19:05N 48°39' W 002°01'0 0.0
2017-Aug-24 18:38N 48°39' W 002°01'0 0.0
2017-Aug-24 18:02N 48°39' W 002°01'  

Dump ship's entire track history